Time;durP1;ratioP1;P1;durP2;ratioP2;P2;SDS_P1;SDS_P2;PMS_P1;PMS_P2;Temp;Humidity;BMP_temperature;BMP_pressure;BME280_temperature;BME280_humidity;BME280_pressure;Samples;Min_cycle;Max_cycle;Signal;HPM_P1;HPM_P2
2023/06/30 10:52:29;;;;;;;;;;;25.80;89.30;;;;;;5124950;27;19911;-68
2023/06/30 10:55:03;;;;;;;;;;;25.70;90.00;;;;;;5114643;27;19920;-66
2023/06/30 10:57:34;;;;;;;;;;;25.60;88.30;;;;;;5047906;28;19929;-68
2023/06/30 11:00:14;;;;;;;;;;;25.80;89.00;;;;;;5038257;28;19925;-67
2023/06/30 11:05:49;;;;;;;;;;;25.80;88.30;;;;;;5062000;27;19924;-68
2023/06/30 11:08:21;;;;;;;;;;;25.80;88.90;;;;;;5072224;28;19924;-73
2023/06/30 11:10:47;;;;;;;;;;;25.90;88.10;;;;;;5066379;28;20020;-68
2023/06/30 11:13:13;;;;;;;;;;;25.90;88.40;;;;;;5067022;28;20011;-74
2023/06/30 11:15:39;;;;;;;;;;;25.60;88.60;;;;;;5066099;28;20255;-67
2023/06/30 11:18:06;;;;;;;;;;;25.50;88.90;;;;;;5068666;28;19925;-76
2023/06/30 11:20:32;;;;;;;;;;;25.40;89.40;;;;;;5068194;28;20031;-68
2023/06/30 11:23:17;;;;;;;;;;;25.30;89.70;;;;;;5084824;28;20000;-70
2023/06/30 11:25:42;;;;;;;;;;;25.20;88.80;;;;;;5066090;28;20083;-66
2023/06/30 11:28:08;;;;;;;;;;;25.00;88.40;;;;;;5098978;28;20003;-68
2023/06/30 11:30:35;;;;;;;;;;;25.00;88.60;;;;;;5078534;28;19924;-69
2023/06/30 11:33:01;;;;;;;;;;;24.90;87.90;;;;;;5071713;28;19928;-69
2023/06/30 11:35:26;;;;;;;;;;;25.00;89.10;;;;;;5063348;28;19932;-75
2023/06/30 11:37:53;;;;;;;;;;;25.30;89.60;;;;;;5094521;28;19928;-70
2023/06/30 11:40:19;;;;;;;;;;;25.50;89.40;;;;;;5046869;28;19947;-70
2023/06/30 11:42:45;;;;;;;;;;;25.60;88.10;;;;;;5044278;28;20451;-71
2023/06/30 11:45:16;;;;;;;;;;;25.70;88.00;;;;;;5046273;28;19929;-69
2023/06/30 11:47:45;;;;;;;;;;;25.70;87.90;;;;;;5065469;28;20288;-70
2023/06/30 11:50:10;;;;;;;;;;;25.70;88.00;;;;;;5068049;28;20362;-67
2023/06/30 11:52:36;;;;;;;;;;;25.60;89.50;;;;;;5098552;28;19974;-70
2023/06/30 11:55:06;;;;;;;;;;;25.70;88.80;;;;;;5066644;28;19925;-69
2023/06/30 11:57:33;;;;;;;;;;;25.60;86.60;;;;;;5100054;28;19925;-74
2023/06/30 12:00:04;;;;;;;;;;;25.70;87.10;;;;;;5098832;28;19978;-68
2023/06/30 12:02:30;;;;;;;;;;;25.70;86.70;;;;;;5068307;28;20017;-75
2023/06/30 12:04:55;;;;;;;;;;;25.80;87.30;;;;;;5091355;28;19979;-67
2023/06/30 12:07:21;;;;;;;;;;;25.80;87.00;;;;;;5083604;28;19924;-68
2023/06/30 12:09:58;;;;;;;;;;;25.80;87.40;;;;;;5099859;28;20378;-68
2023/06/30 12:12:27;;;;;;;;;;;25.90;87.80;;;;;;5066463;28;20273;-68
2023/06/30 12:14:54;;;;;;;;;;;25.90;86.20;;;;;;5065919;28;20003;-67
2023/06/30 12:17:19;;;;;;;;;;;25.90;86.00;;;;;;5086547;28;20289;-68
2023/06/30 12:19:45;;;;;;;;;;;25.90;85.60;;;;;;5053906;28;19925;-68
2023/06/30 12:22:12;;;;;;;;;;;25.90;87.00;;;;;;5036406;28;20346;-68
2023/06/30 12:24:39;;;;;;;;;;;25.90;84.50;;;;;;5084004;28;19932;-68
2023/06/30 12:27:06;;;;;;;;;;;25.90;85.20;;;;;;5054426;28;20003;-68
2023/06/30 12:29:33;;;;;;;;;;;25.90;85.20;;;;;;5053578;28;19929;-68
2023/06/30 12:31:59;;;;;;;;;;;25.90;86.30;;;;;;5086113;28;19924;-66
2023/06/30 12:34:34;;;;;;;;;;;25.80;84.00;;;;;;5056390;28;19932;-67
2023/06/30 12:37:00;;;;;;;;;;;25.70;83.50;;;;;;5057160;28;19925;-67
2023/06/30 12:39:26;;;;;;;;;;;25.70;85.10;;;;;;5052697;28;19979;-68
2023/06/30 12:41:52;;;;;;;;;;;25.60;85.20;;;;;;5061130;28;20262;-68
2023/06/30 12:44:18;;;;;;;;;;;25.60;85.10;;;;;;5053703;28;19925;-68
2023/06/30 12:46:43;;;;;;;;;;;25.40;84.20;;;;;;5064481;28;19936;-68
2023/06/30 12:49:09;;;;;;;;;;;25.30;85.40;;;;;;5086500;28;19983;-66
2023/06/30 12:51:35;;;;;;;;;;;25.30;85.30;;;;;;5053402;28;20004;-68
2023/06/30 12:54:01;;;;;;;;;;;25.20;84.80;;;;;;5052193;28;20388;-67
2023/06/30 12:56:27;;;;;;;;;;;25.20;85.00;;;;;;5049557;28;19925;-68
2023/06/30 12:58:53;;;;;;;;;;;25.20;86.10;;;;;;5085611;28;19932;-69
2023/06/30 13:01:18;;;;;;;;;;;25.40;87.30;;;;;;5052222;28;19932;-69
2023/06/30 13:03:44;;;;;;;;;;;25.50;85.50;;;;;;5048938;28;20386;-67
2023/06/30 13:06:09;;;;;;;;;;;25.60;84.40;;;;;;5082127;28;19932;-67
2023/06/30 13:08:38;;;;;;;;;;;25.70;86.00;;;;;;5051875;28;19924;-67
2023/06/30 13:11:05;;;;;;;;;;;25.40;85.60;;;;;;5085440;28;19925;-67
2023/06/30 13:13:30;;;;;;;;;;;25.30;86.30;;;;;;5052879;28;19940;-67
2023/06/30 13:15:56;;;;;;;;;;;25.30;86.20;;;;;;5084402;28;19924;-67
2023/06/30 13:18:22;;;;;;;;;;;25.20;86.50;;;;;;5053155;28;19968;-67
2023/06/30 13:20:47;;;;;;;;;;;25.30;87.50;;;;;;5080805;28;19983;-67
2023/06/30 13:23:13;;;;;;;;;;;25.30;86.40;;;;;;5068960;28;19994;-67
2023/06/30 13:25:39;;;;;;;;;;;25.20;86.60;;;;;;5068573;28;19925;-67
2023/06/30 13:28:05;;;;;;;;;;;25.20;87.30;;;;;;5078860;28;19936;-67
2023/06/30 13:30:30;;;;;;;;;;;25.20;87.10;;;;;;5052903;28;19936;-68
2023/06/30 13:32:56;;;;;;;;;;;25.20;86.60;;;;;;5050471;28;19929;-67
2023/06/30 13:35:21;;;;;;;;;;;25.20;86.70;;;;;;5053294;28;19931;-67
2023/06/30 13:37:48;;;;;;;;;;;25.20;86.70;;;;;;5083754;28;20012;-67
2023/06/30 13:40:13;;;;;;;;;;;25.30;86.90;;;;;;5085495;28;19925;-66
2023/06/30 13:42:39;;;;;;;;;;;25.40;86.90;;;;;;5052456;28;19925;-67
2023/06/30 13:45:05;;;;;;;;;;;25.30;83.10;;;;;;5084776;28;20075;-66
2023/06/30 13:47:30;;;;;;;;;;;25.20;83.90;;;;;;5052763;28;19929;-66
2023/06/30 13:49:56;;;;;;;;;;;25.10;84.60;;;;;;5051150;28;19925;-67
2023/06/30 13:52:22;;;;;;;;;;;25.10;85.90;;;;;;5083057;28;19936;-67
2023/06/30 13:54:47;;;;;;;;;;;25.00;86.50;;;;;;5051955;28;19968;-69
2023/06/30 13:57:13;;;;;;;;;;;25.00;87.10;;;;;;5085282;28;20015;-66
2023/06/30 13:59:39;;;;;;;;;;;25.00;87.20;;;;;;5052494;28;19970;-66
2023/06/30 14:02:04;;;;;;;;;;;25.10;87.60;;;;;;5051796;28;19937;-67
2023/06/30 14:04:30;;;;;;;;;;;25.10;87.00;;;;;;5033755;28;19939;-67
2023/06/30 14:06:56;;;;;;;;;;;25.10;85.80;;;;;;5050841;28;19925;-67
2023/06/30 14:09:21;;;;;;;;;;;25.20;86.10;;;;;;5052425;28;19929;-68
2023/06/30 14:11:47;;;;;;;;;;;25.20;86.20;;;;;;5052467;28;19975;-70
2023/06/30 14:14:13;;;;;;;;;;;25.20;86.70;;;;;;5067360;28;19967;-66
2023/06/30 14:16:38;;;;;;;;;;;25.10;86.60;;;;;;5084539;28;20015;-66
2023/06/30 14:19:06;;;;;;;;;;;25.10;86.70;;;;;;5082411;28;19925;-66
2023/06/30 14:21:31;;;;;;;;;;;25.10;86.90;;;;;;5060217;28;20302;-66
2023/06/30 14:23:57;;;;;;;;;;;25.10;86.70;;;;;;5046181;28;19924;-66
2023/06/30 14:26:24;;;;;;;;;;;25.20;86.60;;;;;;5051964;28;19931;-66
2023/06/30 14:28:51;;;;;;;;;;;25.20;85.50;;;;;;5051924;28;20336;-72
2023/06/30 14:31:16;;;;;;;;;;;25.20;86.10;;;;;;5083284;28;19925;-71
2023/06/30 14:33:42;;;;;;;;;;;25.20;85.80;;;;;;5051268;28;19929;-72
2023/06/30 14:36:08;;;;;;;;;;;25.20;85.60;;;;;;5081660;28;20289;-69
2023/06/30 14:38:34;;;;;;;;;;;25.30;86.50;;;;;;5066900;28;20378;-68
2023/06/30 14:41:00;;;;;;;;;;;25.40;87.20;;;;;;5050202;28;19975;-71
2023/06/30 14:43:25;;;;;;;;;;;25.60;87.50;;;;;;5084342;28;19932;-69
2023/06/30 14:45:51;;;;;;;;;;;25.60;86.90;;;;;;5051239;28;19925;-73
2023/06/30 14:48:17;;;;;;;;;;;25.60;87.00;;;;;;5050043;28;19929;-69
2023/06/30 14:50:44;;;;;;;;;;;25.50;86.40;;;;;;5061446;28;19929;-70
2023/06/30 14:53:10;;;;;;;;;;;25.40;86.30;;;;;;5043171;28;19925;-67
2023/06/30 14:55:35;;;;;;;;;;;25.40;87.20;;;;;;5050772;28;19925;-67
2023/06/30 14:58:01;;;;;;;;;;;25.50;87.90;;;;;;5074587;28;19925;-69
2023/06/30 15:00:27;;;;;;;;;;;25.50;87.60;;;;;;5073182;28;19925;-67
2023/06/30 15:02:52;;;;;;;;;;;25.50;86.90;;;;;;5067405;28;19932;-67
2023/06/30 15:05:18;;;;;;;;;;;25.40;87.20;;;;;;5050994;28;19925;-70
2023/06/30 15:07:44;;;;;;;;;;;25.20;87.10;;;;;;5050650;28;19933;-69
2023/06/30 15:10:09;;;;;;;;;;;25.20;87.10;;;;;;5077482;28;20012;-68
2023/06/30 15:12:35;;;;;;;;;;;25.20;87.10;;;;;;5058969;28;20146;-67
2023/06/30 15:15:01;;;;;;;;;;;25.10;87.80;;;;;;5041181;28;19940;-68
2023/06/30 15:17:26;;;;;;;;;;;24.90;87.50;;;;;;5078493;28;19937;-68
2023/06/30 15:19:52;;;;;;;;;;;24.80;87.70;;;;;;5081450;28;19925;-68
2023/06/30 15:22:17;;;;;;;;;;;24.70;88.90;;;;;;5047399;28;19933;-69
2023/06/30 15:24:43;;;;;;;;;;;24.60;88.60;;;;;;5081189;28;19924;-67
2023/06/30 15:27:09;;;;;;;;;;;24.50;88.90;;;;;;5046299;28;19925;-79
2023/06/30 15:29:34;;;;;;;;;;;24.60;89.00;;;;;;5030688;28;19925;-72
2023/06/30 15:32:00;;;;;;;;;;;24.60;89.00;;;;;;5081405;28;19939;-72
2023/06/30 15:34:26;;;;;;;;;;;24.50;88.90;;;;;;5048415;28;19928;-73
2023/06/30 15:36:51;;;;;;;;;;;24.60;89.40;;;;;;5014184;28;19929;-72
2023/06/30 15:39:17;;;;;;;;;;;24.50;89.40;;;;;;5048045;28;20418;-67
2023/06/30 15:41:43;;;;;;;;;;;24.60;89.30;;;;;;5048031;28;19935;-68
2023/06/30 15:44:09;;;;;;;;;;;24.60;89.90;;;;;;5047870;28;20028;-67
2023/06/30 15:46:35;;;;;;;;;;;24.70;89.70;;;;;;5048674;28;20011;-66
2023/06/30 15:49:00;;;;;;;;;;;24.80;90.10;;;;;;5048602;28;20374;-73
2023/06/30 15:51:26;;;;;;;;;;;24.90;90.00;;;;;;5049717;28;19929;-68
2023/06/30 15:53:52;;;;;;;;;;;24.90;90.40;;;;;;5052505;28;19935;-67
2023/06/30 15:56:17;;;;;;;;;;;24.80;90.10;;;;;;5050473;28;19972;-68
2023/06/30 15:58:43;;;;;;;;;;;24.70;90.20;;;;;;5051216;28;20682;-68
2023/06/30 16:01:08;;;;;;;;;;;24.40;90.20;;;;;;5084020;28;19928;-66
2023/06/30 16:03:36;;;;;;;;;;;24.40;90.50;;;;;;5065159;28;20343;-67
2023/06/30 16:06:02;;;;;;;;;;;24.40;90.60;;;;;;5051750;28;19968;-73
2023/06/30 16:08:27;;;;;;;;;;;24.30;90.90;;;;;;5043529;28;137666;-67
2023/06/30 16:10:53;;;;;;;;;;;24.20;91.40;;;;;;5050741;28;19996;-69
2023/06/30 16:13:19;;;;;;;;;;;24.10;91.10;;;;;;5051581;28;20343;-66
2023/06/30 16:15:45;;;;;;;;;;;24.00;91.20;;;;;;5049852;28;19972;-67
2023/06/30 16:18:10;;;;;;;;;;;24.00;91.20;;;;;;5051164;28;19975;-68
2023/06/30 16:20:36;;;;;;;;;;;23.80;91.50;;;;;;5051373;28;19940;-66
2023/06/30 16:23:02;;;;;;;;;;;23.70;91.40;;;;;;5051904;28;19948;-66
2023/06/30 16:25:27;;;;;;;;;;;23.70;91.90;;;;;;5051033;28;19980;-68
2023/06/30 16:27:53;;;;;;;;;;;23.60;92.10;;;;;;5064878;28;20057;-68
2023/06/30 16:30:19;;;;;;;;;;;23.60;91.90;;;;;;5074711;28;19929;-72
2023/06/30 16:32:45;;;;;;;;;;;23.60;92.00;;;;;;5070819;28;19924;-64
2023/06/30 16:35:10;;;;;;;;;;;23.40;92.20;;;;;;5053456;28;19928;-64
2023/06/30 16:37:36;;;;;;;;;;;23.40;92.40;;;;;;5086103;28;20658;-64
2023/06/30 16:40:02;;;;;;;;;;;23.40;92.50;;;;;;5053685;28;19976;-63
2023/06/30 16:42:29;;;;;;;;;;;23.50;92.40;;;;;;5052868;28;19920;-64
2023/06/30 16:44:55;;;;;;;;;;;23.50;92.30;;;;;;5052595;28;19925;-64
2023/06/30 16:47:21;;;;;;;;;;;23.50;92.40;;;;;;5051787;28;20023;-64
2023/06/30 16:49:47;;;;;;;;;;;23.50;92.10;;;;;;5053257;28;19968;-64
2023/06/30 16:52:12;;;;;;;;;;;23.60;92.40;;;;;;5053083;28;19964;-64
2023/06/30 16:54:38;;;;;;;;;;;23.60;92.30;;;;;;5053322;28;19971;-64
2023/06/30 16:57:04;;;;;;;;;;;23.50;92.30;;;;;;5053235;28;20294;-65
2023/06/30 16:59:29;;;;;;;;;;;23.50;92.50;;;;;;5066474;28;19928;-65
2023/06/30 17:01:55;;;;;;;;;;;23.50;92.60;;;;;;5053724;28;20055;-66
2023/06/30 17:04:20;;;;;;;;;;;23.50;92.50;;;;;;5050799;28;19925;-66
2023/06/30 17:06:46;;;;;;;;;;;23.50;92.70;;;;;;5082155;28;20016;-65
2023/06/30 17:09:11;;;;;;;;;;;23.40;92.60;;;;;;5052389;28;19925;-65
2023/06/30 17:11:37;;;;;;;;;;;23.30;93.00;;;;;;5053682;28;20267;-65
2023/06/30 17:14:03;;;;;;;;;;;23.30;93.30;;;;;;5080188;28;19940;-65
2023/06/30 17:16:29;;;;;;;;;;;23.20;93.50;;;;;;5052478;28;19925;-65
2023/06/30 17:18:54;;;;;;;;;;;23.20;93.60;;;;;;5050462;28;20393;-65
2023/06/30 17:21:20;;;;;;;;;;;23.10;93.70;;;;;;5051018;28;19975;-66
2023/06/30 17:23:45;;;;;;;;;;;23.10;93.60;;;;;;5085427;28;19954;-65
2023/06/30 17:26:11;;;;;;;;;;;23.10;93.70;;;;;;5084967;28;20011;-67
2023/06/30 17:28:36;;;;;;;;;;;23.20;94.00;;;;;;5052473;28;19928;-66
2023/06/30 17:31:02;;;;;;;;;;;23.20;94.00;;;;;;5050938;28;19925;-64
2023/06/30 17:33:28;;;;;;;;;;;23.20;94.10;;;;;;5051048;28;19929;-65
2023/06/30 17:35:53;;;;;;;;;;;23.20;93.60;;;;;;5052742;28;19925;-63
2023/06/30 17:38:19;;;;;;;;;;;23.20;93.70;;;;;;5050455;28;19932;-63
2023/06/30 17:40:44;;;;;;;;;;;23.10;93.30;;;;;;5052004;28;20015;-64
2023/06/30 17:43:11;;;;;;;;;;;23.00;93.10;;;;;;5037937;28;19928;-64
2023/06/30 17:45:38;;;;;;;;;;;22.90;92.90;;;;;;5086295;28;19929;-64
2023/06/30 17:48:04;;;;;;;;;;;22.80;92.90;;;;;;5052501;28;19941;-65
2023/06/30 17:50:30;;;;;;;;;;;22.90;93.10;;;;;;5050711;28;20180;-64
2023/06/30 17:52:55;;;;;;;;;;;22.90;93.00;;;;;;5085065;28;19947;-64
2023/06/30 17:55:21;;;;;;;;;;;22.90;93.10;;;;;;5050939;28;19932;-64
2023/06/30 17:57:47;;;;;;;;;;;22.90;93.30;;;;;;5051917;28;19971;-64
2023/06/30 18:00:13;;;;;;;;;;;22.90;93.00;;;;;;5052497;28;19931;-65
2023/06/30 18:02:39;;;;;;;;;;;22.90;93.20;;;;;;5047685;28;20290;-64
2023/06/30 18:05:04;;;;;;;;;;;22.90;93.00;;;;;;5048879;28;19939;-64
2023/06/30 18:07:30;;;;;;;;;;;22.90;93.10;;;;;;5046324;28;19990;-66
2023/06/30 18:09:55;;;;;;;;;;;22.90;93.00;;;;;;5052708;28;19929;-66
2023/06/30 18:12:21;;;;;;;;;;;22.90;92.30;;;;;;5049261;28;19928;-65
2023/06/30 18:14:47;;;;;;;;;;;22.80;92.30;;;;;;5080100;28;19924;-66
2023/06/30 18:17:15;;;;;;;;;;;22.80;92.50;;;;;;5081453;28;19938;-66
2023/06/30 18:19:40;;;;;;;;;;;22.70;92.60;;;;;;5053621;28;20026;-65
2023/06/30 18:22:07;;;;;;;;;;;22.70;92.70;;;;;;5050638;28;19937;-68
2023/06/30 18:24:33;;;;;;;;;;;22.70;92.40;;;;;;5048676;28;19929;-65
2023/06/30 18:26:58;;;;;;;;;;;22.60;92.30;;;;;;5031060;28;19935;-65
2023/06/30 18:29:25;;;;;;;;;;;22.50;92.40;;;;;;5081865;28;19932;-65
2023/06/30 18:31:52;;;;;;;;;;;22.40;92.20;;;;;;5048790;28;20366;-65
2023/06/30 18:34:18;;;;;;;;;;;22.30;92.40;;;;;;5049438;28;19998;-67
2023/06/30 18:36:44;;;;;;;;;;;22.20;92.40;;;;;;5049289;28;19951;-65
2023/06/30 18:39:10;;;;;;;;;;;22.10;92.20;;;;;;5051380;28;19929;-65
2023/06/30 18:41:36;;;;;;;;;;;22.10;92.30;;;;;;5052506;28;19928;-66
2023/06/30 18:44:02;;;;;;;;;;;22.00;92.40;;;;;;5079334;28;19947;-66
2023/06/30 18:46:27;;;;;;;;;;;22.00;92.20;;;;;;5048111;28;20349;-65
2023/06/30 18:48:56;;;;;;;;;;;21.90;92.20;;;;;;5071294;28;19928;-65
2023/06/30 18:51:25;;;;;;;;;;;21.90;92.20;;;;;;5076230;28;19933;-64
2023/06/30 18:53:51;;;;;;;;;;;21.80;92.50;;;;;;5062128;28;19924;-64
2023/06/30 18:56:21;;;;;;;;;;;21.70;92.70;;;;;;5028479;28;19925;-65
2023/06/30 18:58:48;;;;;;;;;;;21.70;92.80;;;;;;5045258;28;20335;-64
2023/06/30 19:01:13;;;;;;;;;;;21.70;92.80;;;;;;5063400;28;19933;-65
2023/06/30 19:03:40;;;;;;;;;;;21.70;93.00;;;;;;5045269;28;19931;-63
2023/06/30 19:06:05;;;;;;;;;;;21.50;92.80;;;;;;5045384;28;19925;-64
2023/06/30 19:08:31;;;;;;;;;;;21.50;93.00;;;;;;5077500;28;20337;-65
2023/06/30 19:10:56;;;;;;;;;;;21.50;93.10;;;;;;5046480;28;19928;-64
2023/06/30 19:13:22;;;;;;;;;;;21.50;93.20;;;;;;5079892;28;20051;-67
2023/06/30 19:15:48;;;;;;;;;;;21.50;93.30;;;;;;5045362;28;19986;-64
2023/06/30 19:18:14;;;;;;;;;;;21.40;93.30;;;;;;5060323;28;19932;-64
2023/06/30 19:20:42;;;;;;;;;;;21.40;93.50;;;;;;5046169;28;19982;-64
2023/06/30 19:23:09;;;;;;;;;;;21.30;93.70;;;;;;5080276;28;19936;-64
2023/06/30 19:25:35;;;;;;;;;;;21.30;93.70;;;;;;5045255;28;20386;-64
2023/06/30 19:28:00;;;;;;;;;;;21.30;93.90;;;;;;5050207;28;19954;-64
2023/06/30 19:30:27;;;;;;;;;;;21.30;93.80;;;;;;5035430;28;19929;-67
2023/06/30 19:32:53;;;;;;;;;;;21.30;94.00;;;;;;5062108;28;19928;-65
2023/06/30 19:35:19;;;;;;;;;;;21.30;94.50;;;;;;5051391;28;19929;-65
2023/06/30 19:37:44;;;;;;;;;;;21.20;94.00;;;;;;5064311;28;19986;-65
2023/06/30 19:40:11;;;;;;;;;;;21.20;94.10;;;;;;5051496;28;19937;-64
2023/06/30 19:42:36;;;;;;;;;;;21.20;94.30;;;;;;5045471;28;19929;-65
2023/06/30 19:45:05;;;;;;;;;;;21.10;94.20;;;;;;5057667;28;20031;-66
2023/06/30 19:47:31;;;;;;;;;;;21.10;94.40;;;;;;5050525;28;19998;-65
2023/06/30 19:49:57;;;;;;;;;;;21.10;94.60;;;;;;5051568;28;19935;-65
2023/06/30 19:52:23;;;;;;;;;;;21.00;94.50;;;;;;5063101;28;19944;-64
2023/06/30 19:54:48;;;;;;;;;;;20.90;94.70;;;;;;5044521;28;20278;-64
2023/06/30 19:57:15;;;;;;;;;;;20.90;94.70;;;;;;5051285;28;19925;-67
2023/06/30 19:59:41;;;;;;;;;;;20.80;94.70;;;;;;5047656;28;19976;-65
2023/06/30 20:02:07;;;;;;;;;;;20.70;94.90;;;;;;5047683;28;19947;-65
2023/06/30 20:04:33;;;;;;;;;;;20.70;94.80;;;;;;5034889;28;19925;-68
2023/06/30 20:06:58;;;;;;;;;;;20.70;94.90;;;;;;5049730;28;19935;-64
2023/06/30 20:09:24;;;;;;;;;;;20.60;95.10;;;;;;5049847;28;19979;-65
2023/06/30 20:11:50;;;;;;;;;;;20.60;95.00;;;;;;5051773;28;20455;-64
2023/06/30 20:14:15;;;;;;;;;;;20.50;95.10;;;;;;5051833;28;20239;-65
2023/06/30 20:16:41;;;;;;;;;;;20.50;94.90;;;;;;5051633;28;19928;-65
2023/06/30 20:19:06;;;;;;;;;;;20.50;94.80;;;;;;5081266;28;19928;-64
2023/06/30 20:21:32;;;;;;;;;;;20.40;94.30;;;;;;5051591;28;20331;-67
2023/06/30 20:23:57;;;;;;;;;;;20.30;94.30;;;;;;5051604;28;19937;-64
2023/06/30 20:26:23;;;;;;;;;;;20.20;93.90;;;;;;5078254;28;20016;-63
2023/06/30 20:28:49;;;;;;;;;;;20.10;94.10;;;;;;5051326;28;19940;-65
2023/06/30 20:31:15;;;;;;;;;;;20.10;94.10;;;;;;5050307;28;20360;-64
2023/06/30 20:33:40;;;;;;;;;;;20.10;94.10;;;;;;5082817;28;19936;-64
2023/06/30 20:36:06;;;;;;;;;;;20.00;94.10;;;;;;5083715;28;19968;-64
2023/06/30 20:38:32;;;;;;;;;;;20.00;94.20;;;;;;5066047;28;20050;-64
2023/06/30 20:40:57;;;;;;;;;;;20.00;94.40;;;;;;5050487;28;19947;-65
2023/06/30 20:43:23;;;;;;;;;;;20.00;94.10;;;;;;5051187;28;19965;-63
2023/06/30 20:45:49;;;;;;;;;;;20.00;94.00;;;;;;5066819;28;20325;-64
2023/06/30 20:48:14;;;;;;;;;;;20.00;94.20;;;;;;5054051;28;20028;-63
2023/06/30 20:50:40;;;;;;;;;;;20.00;93.90;;;;;;5064952;28;19975;-63
2023/06/30 20:53:05;;;;;;;;;;;20.00;94.00;;;;;;5050083;28;19928;-63
2023/06/30 20:55:31;;;;;;;;;;;19.90;94.10;;;;;;5049999;28;19929;-64
2023/06/30 20:57:57;;;;;;;;;;;19.90;94.00;;;;;;5082539;28;20773;-64
2023/06/30 21:00:22;;;;;;;;;;;20.00;94.00;;;;;;5049558;28;19935;-64
2023/06/30 21:02:48;;;;;;;;;;;20.00;94.10;;;;;;5050058;28;19986;-63
2023/06/30 21:05:13;;;;;;;;;;;20.00;94.00;;;;;;5050256;28;19951;-63
2023/06/30 21:07:39;;;;;;;;;;;19.90;94.20;;;;;;5082902;28;19933;-65
2023/06/30 21:10:05;;;;;;;;;;;19.90;94.10;;;;;;5049898;28;20319;-64
2023/06/30 21:12:30;;;;;;;;;;;19.80;94.20;;;;;;5050414;28;19929;-64
2023/06/30 21:14:56;;;;;;;;;;;19.70;94.30;;;;;;5049903;28;20378;-64
2023/06/30 21:17:21;;;;;;;;;;;19.70;94.30;;;;;;5050822;28;20366;-64
2023/06/30 21:19:47;;;;;;;;;;;19.70;94.60;;;;;;5077767;28;19983;-63
2023/06/30 21:22:13;;;;;;;;;;;19.70;94.50;;;;;;5077552;28;19925;-64
2023/06/30 21:24:38;;;;;;;;;;;19.70;94.50;;;;;;5049377;28;19929;-66
2023/06/30 21:27:04;;;;;;;;;;;19.70;94.60;;;;;;5047693;28;20023;-65
2023/06/30 21:29:30;;;;;;;;;;;19.60;94.80;;;;;;5049278;28;19939;-65
2023/06/30 21:31:55;;;;;;;;;;;19.60;94.90;;;;;;5082206;28;20030;-65
2023/06/30 21:34:21;;;;;;;;;;;19.60;95.20;;;;;;5051233;28;19928;-65
2023/06/30 21:36:46;;;;;;;;;;;19.60;95.20;;;;;;5046757;28;19951;-65
2023/06/30 21:39:12;;;;;;;;;;;19.50;95.20;;;;;;5048850;28;19976;-64
2023/06/30 21:41:38;;;;;;;;;;;19.50;95.40;;;;;;5076519;28;20366;-65
2023/06/30 21:44:04;;;;;;;;;;;19.50;95.50;;;;;;5049420;28;19935;-64
2023/06/30 21:46:29;;;;;;;;;;;19.50;95.40;;;;;;5085115;28;20232;-64
2023/06/30 21:48:55;;;;;;;;;;;19.50;95.60;;;;;;5081888;28;19932;-64
2023/06/30 21:51:20;;;;;;;;;;;19.40;95.60;;;;;;5051007;28;19924;-64
2023/06/30 21:53:46;;;;;;;;;;;19.40;95.80;;;;;;5065407;28;19967;-64
2023/06/30 21:56:12;;;;;;;;;;;19.40;95.90;;;;;;5052624;28;19931;-63
2023/06/30 21:58:37;;;;;;;;;;;19.40;95.90;;;;;;5052115;28;19925;-63
2023/06/30 22:01:03;;;;;;;;;;;19.40;96.00;;;;;;5060692;28;20443;-64
2023/06/30 22:03:29;;;;;;;;;;;19.30;96.10;;;;;;5081674;28;19935;-64
2023/06/30 22:05:55;;;;;;;;;;;19.30;96.60;;;;;;5051268;28;19925;-64
2023/06/30 22:08:23;;;;;;;;;;;19.30;96.60;;;;;;5049328;28;19947;-65
2023/06/30 22:10:49;;;;;;;;;;;19.30;96.70;;;;;;5066362;28;19932;-64
2023/06/30 22:13:14;;;;;;;;;;;19.30;96.70;;;;;;5052136;28;19925;-65
2023/06/30 22:15:40;;;;;;;;;;;19.30;96.80;;;;;;5052533;28;20296;-65
2023/06/30 22:18:06;;;;;;;;;;;19.30;96.90;;;;;;5082671;28;20075;-68
2023/06/30 22:20:31;;;;;;;;;;;19.30;96.80;;;;;;5052347;28;19929;-64
2023/06/30 22:22:57;;;;;;;;;;;19.30;97.20;;;;;;5083695;28;19924;-63
2023/06/30 22:25:23;;;;;;;;;;;19.30;97.40;;;;;;5051773;28;19968;-63
2023/06/30 22:27:52;;;;;;;;;;;19.30;97.30;;;;;;5080010;28;19978;-67
2023/06/30 22:30:19;;;;;;;;;;;19.30;97.50;;;;;;5052162;28;20396;-64
2023/06/30 22:32:44;;;;;;;;;;;19.20;97.60;;;;;;5051837;28;20055;-64
2023/06/30 22:35:10;;;;;;;;;;;19.20;97.60;;;;;;5084011;28;20027;-63
2023/06/30 22:37:36;;;;;;;;;;;19.20;97.60;;;;;;5051206;28;20397;-64
2023/06/30 22:40:01;;;;;;;;;;;19.20;97.50;;;;;;5058934;28;19925;-64
2023/06/30 22:42:27;;;;;;;;;;;19.20;97.20;;;;;;5084440;28;19932;-64
2023/06/30 22:44:53;;;;;;;;;;;19.10;97.20;;;;;;5049924;28;19925;-65
2023/06/30 22:47:18;;;;;;;;;;;19.10;97.30;;;;;;5084561;28;19925;-64
2023/06/30 22:49:45;;;;;;;;;;;19.10;97.40;;;;;;5050977;28;19968;-65
2023/06/30 22:52:11;;;;;;;;;;;19.10;97.70;;;;;;5049489;28;19925;-64
2023/06/30 22:54:37;;;;;;;;;;;19.10;97.70;;;;;;5051504;28;19975;-65
2023/06/30 22:57:03;;;;;;;;;;;19.10;97.60;;;;;;5066627;28;19979;-65
2023/06/30 22:59:28;;;;;;;;;;;19.10;97.60;;;;;;5083775;28;19972;-64
2023/06/30 23:01:54;;;;;;;;;;;19.00;97.40;;;;;;5050208;28;19978;-68
2023/06/30 23:04:19;;;;;;;;;;;19.10;97.40;;;;;;5049696;28;19998;-64
2023/06/30 23:06:45;;;;;;;;;;;19.00;97.50;;;;;;5056578;28;19925;-64
2023/06/30 23:09:11;;;;;;;;;;;19.00;97.60;;;;;;5082433;28;19925;-64
2023/06/30 23:11:37;;;;;;;;;;;18.90;97.80;;;;;;5050068;28;20015;-65
2023/06/30 23:14:03;;;;;;;;;;;19.00;97.70;;;;;;5073543;28;20381;-64
2023/06/30 23:16:37;;;;;;;;;;;19.00;97.90;;;;;;5050160;28;19939;-64
2023/06/30 23:19:06;;;;;;;;;;;19.00;98.00;;;;;;5051098;28;20052;-64
2023/06/30 23:21:32;;;;;;;;;;;18.90;98.10;;;;;;5072270;28;19926;-64
2023/06/30 23:23:58;;;;;;;;;;;19.00;98.10;;;;;;5049712;28;19957;-65
2023/06/30 23:26:24;;;;;;;;;;;18.90;98.20;;;;;;5051059;28;20062;-64
2023/06/30 23:28:50;;;;;;;;;;;18.80;98.50;;;;;;5066976;28;19986;-65
2023/06/30 23:31:22;;;;;;;;;;;18.80;98.80;;;;;;5066111;28;20493;-65
2023/06/30 23:33:51;;;;;;;;;;;18.70;98.80;;;;;;5050224;28;19976;-64
2023/06/30 23:36:20;;;;;;;;;;;18.70;99.10;;;;;;5032952;28;19921;-64
2023/06/30 23:38:45;;;;;;;;;;;18.70;99.10;;;;;;5067220;28;19932;-63
2023/06/30 23:41:11;;;;;;;;;;;18.70;99.00;;;;;;5083528;28;19924;-64
2023/06/30 23:43:37;;;;;;;;;;;18.70;99.20;;;;;;5050149;28;19924;-64
2023/06/30 23:46:02;;;;;;;;;;;18.70;99.20;;;;;;5050280;28;20015;-64
2023/06/30 23:48:28;;;;;;;;;;;18.70;99.60;;;;;;5049901;28;19925;-64
2023/06/30 23:50:53;;;;;;;;;;;18.60;99.30;;;;;;5051595;28;19931;-65
2023/06/30 23:53:19;;;;;;;;;;;18.60;99.40;;;;;;5082146;28;19927;-63
2023/06/30 23:55:45;;;;;;;;;;;18.60;99.40;;;;;;5066818;28;19970;-63
2023/06/30 23:58:10;;;;;;;;;;;18.60;99.50;;;;;;5049295;28;19929;-64
